AWD weather

Aniwa Airport
Aniwa, Tafea, Vanuatu

Public forecast

Using degrees Celsius for public forecast. Weather courtesy of forecast.io.

Closest aviation weather report (METAR) to Aniwa Airport

Closest report is Tanna Airport, 25.1 nm (46.5 km) WSW. Retrieved 2019/12/07 18:00 UTC (38 minutes ago):

NVVW 071800Z AUTO 03003KT //// // NCD 26/23 Q1012

Closest aviation forecast (TAF) to Aniwa Airport

Closest forecast is Tanna Airport, 25.1 nm (46.5 km) WSW. Retrieved 2019/12/07 18:18 UTC (20 minutes ago):

TAF NVVW 071600Z 0718/0818 VRB02KT 9999 SCT018 BKN040 INTER 0718/0724 9000 -SHRA BKN018